Time;durP1;ratioP1;P1;durP2;ratioP2;P2;SDS_P1;SDS_P2;PMS_P1;PMS_P2;Temp;Humidity;BMP_temperature;BMP_pressure;BME280_temperature;BME280_humidity;BME280_pressure;Samples;Min_cycle;Max_cycle;Signal;HPM_P1;HPM_P2
2023/11/09 00:01:34;;;;;;;0.10;0.10;;;7.70;99.90;;;;;;5065331;28;20219;-78
2023/11/09 00:03:59;;;;;;;0.10;0.10;;;7.70;99.90;;;;;;5068077;28;20243;-78
2023/11/09 00:06:25;;;;;;;0.10;0.10;;;7.70;99.90;;;;;;5061695;28;20221;-78
2023/11/09 00:08:50;;;;;;;0.10;0.10;;;7.60;99.90;;;;;;5068272;28;20660;-78
2023/11/09 00:11:16;;;;;;;0.10;0.10;;;7.50;99.90;;;;;;5069932;28;20204;-79
2023/11/09 00:13:42;;;;;;;0.10;0.10;;;7.50;99.90;;;;;;5069308;28;20295;-79
2023/11/09 00:16:12;;;;;;;0.10;0.10;;;7.60;99.90;;;;;;5063322;28;20249;-78
2023/11/09 00:18:37;;;;;;;0.17;0.17;;;7.50;99.90;;;;;;5069408;28;20184;-78
2023/11/09 00:21:03;;;;;;;0.10;0.10;;;7.70;99.90;;;;;;5060603;28;21018;-78
2023/11/09 00:23:31;;;;;;;0.10;0.10;;;7.60;99.90;;;;;;5061885;28;20699;-78
2023/11/09 00:25:58;;;;;;;0.10;0.10;;;7.50;99.90;;;;;;5066382;28;20245;-79
2023/11/09 00:28:24;;;;;;;0.10;0.10;;;7.50;99.90;;;;;;5066703;28;20185;-79
2023/11/09 00:30:49;;;;;;;0.10;0.10;;;7.60;99.90;;;;;;5065644;28;20206;-79
2023/11/09 00:33:15;;;;;;;0.10;0.10;;;7.70;99.90;;;;;;5062181;28;20180;-78
2023/11/09 00:35:41;;;;;;;0.10;0.10;;;7.70;99.90;;;;;;5068386;28;20207;-79
2023/11/09 00:38:07;;;;;;;0.10;0.10;;;7.70;99.90;;;;;;5059284;28;20230;-79
2023/11/09 00:40:33;;;;;;;0.10;0.10;;;7.70;99.90;;;;;;5065927;28;20212;-79
2023/11/09 00:42:59;;;;;;;0.10;0.10;;;7.80;99.90;;;;;;5067966;28;20860;-78
2023/11/09 00:45:25;;;;;;;0.10;0.10;;;7.90;99.90;;;;;;5066282;28;22156;-78
2023/11/09 00:47:52;;;;;;;0.10;0.10;;;7.90;99.90;;;;;;5066062;28;20266;-78
2023/11/09 00:50:17;;;;;;;0.00;0.00;;;7.90;99.90;;;;;;5067860;28;20228;-78
2023/11/09 00:52:43;;;;;;;0.10;0.10;;;7.80;99.90;;;;;;5066402;28;20180;-78
2023/11/09 00:55:08;;;;;;;0.10;0.10;;;7.80;99.90;;;;;;5067828;28;20205;-79
2023/11/09 00:57:34;;;;;;;0.10;0.10;;;7.80;99.90;;;;;;5059612;28;20181;-78
2023/11/09 01:00:00;;;;;;;0.10;0.10;;;7.90;99.90;;;;;;5063531;28;20189;-78
2023/11/09 01:02:26;;;;;;;0.10;0.10;;;8.00;99.90;;;;;;5067659;28;20184;-78
2023/11/09 01:04:51;;;;;;;0.10;0.10;;;8.00;99.90;;;;;;5068781;28;20251;-78
2023/11/09 01:07:17;;;;;;;0.10;0.10;;;8.10;99.90;;;;;;5069525;28;20185;-79
2023/11/09 01:09:45;;;;;;;0.10;0.10;;;8.00;99.90;;;;;;5065672;28;20188;-78
2023/11/09 01:12:11;;;;;;;0.10;0.10;;;8.20;99.90;;;;;;5062739;28;20207;-78
2023/11/09 01:14:37;;;;;;;0.10;0.10;;;8.30;99.90;;;;;;5063515;28;20303;-78
2023/11/09 01:17:03;;;;;;;0.10;0.10;;;8.40;99.90;;;;;;5067084;28;20267;-78
2023/11/09 01:19:29;;;;;;;0.10;0.10;;;8.40;99.90;;;;;;5066495;28;20725;-77
2023/11/09 01:21:54;;;;;;;0.10;0.10;;;8.40;99.90;;;;;;5068717;28;20195;-78
2023/11/09 01:24:20;;;;;;;0.10;0.10;;;8.50;99.90;;;;;;5067508;28;20201;-77
2023/11/09 01:26:46;;;;;;;0.10;0.10;;;8.60;99.90;;;;;;5062124;28;20204;-78
2023/11/09 01:29:13;;;;;;;0.00;0.00;;;8.60;99.90;;;;;;5068290;28;20174;-77
2023/11/09 01:31:39;;;;;;;0.10;0.10;;;8.80;99.90;;;;;;5065172;28;20189;-78
2023/11/09 01:34:05;;;;;;;0.10;0.10;;;8.70;99.90;;;;;;5058231;28;20293;-78
2023/11/09 01:36:30;;;;;;;0.10;0.10;;;8.80;99.90;;;;;;5068440;28;20639;-78
2023/11/09 01:38:56;;;;;;;0.10;0.10;;;8.90;99.90;;;;;;5071767;28;20180;-77
2023/11/09 01:41:22;;;;;;;0.10;0.10;;;8.80;99.90;;;;;;5071439;28;20177;-78
2023/11/09 01:43:55;;;;;;;0.10;0.10;;;8.90;99.90;;;;;;5071058;28;20257;-78
2023/11/09 01:46:21;;;;;;;0.10;0.10;;;8.80;99.90;;;;;;5070327;28;20313;-78
2023/11/09 01:48:47;;;;;;;0.10;0.10;;;8.80;99.90;;;;;;5070256;28;20278;-77
2023/11/09 01:51:12;;;;;;;0.10;0.10;;;8.80;99.90;;;;;;5068849;28;20659;-78
2023/11/09 01:53:38;;;;;;;0.10;0.10;;;8.80;99.90;;;;;;5068339;28;20216;-77
2023/11/09 01:56:05;;;;;;;0.10;0.10;;;8.70;99.90;;;;;;5069285;28;20189;-78
2023/11/09 01:58:33;;;;;;;0.10;0.10;;;8.70;99.90;;;;;;5071988;28;20169;-77
2023/11/09 02:01:01;;;;;;;0.10;0.10;;;8.70;99.90;;;;;;5069863;28;20193;-78
2023/11/09 02:03:28;;;;;;;0.10;0.10;;;8.80;99.90;;;;;;5071593;28;20187;-78
2023/11/09 02:05:55;;;;;;;0.10;0.10;;;8.70;99.90;;;;;;5071487;28;20525;-77
2023/11/09 02:08:21;;;;;;;0.00;0.00;;;8.70;99.90;;;;;;5070882;28;20189;-78
2023/11/09 02:10:46;;;;;;;0.10;0.10;;;8.70;99.90;;;;;;5070804;28;20197;-78
2023/11/09 02:13:12;;;;;;;0.10;0.10;;;8.80;99.90;;;;;;5071406;28;20185;-78
2023/11/09 02:15:38;;;;;;;0.00;0.00;;;8.70;99.90;;;;;;5069576;28;20287;-77
2023/11/09 02:18:03;;;;;;;0.10;0.10;;;8.70;99.90;;;;;;5070289;28;20185;-78
2023/11/09 02:20:30;;;;;;;0.10;0.10;;;8.70;99.90;;;;;;5071991;28;20196;-78
2023/11/09 02:22:58;;;;;;;0.10;0.10;;;8.70;99.90;;;;;;5071590;28;20192;-77
2023/11/09 02:25:25;;;;;;;0.10;0.10;;;8.80;99.90;;;;;;5069010;28;20254;-78
2023/11/09 02:27:51;;;;;;;0.10;0.10;;;8.70;99.90;;;;;;5086129;28;20211;-77
2023/11/09 02:30:16;;;;;;;0.10;0.10;;;8.70;99.90;;;;;;5062335;28;20190;-78
2023/11/09 02:32:42;;;;;;;0.10;0.10;;;8.80;99.90;;;;;;5069142;28;20181;-78
2023/11/09 02:35:08;;;;;;;0.10;0.10;;;8.80;99.90;;;;;;5070262;28;20214;-78
2023/11/09 02:37:34;;;;;;;0.10;0.10;;;8.80;99.90;;;;;;5070268;28;20196;-78
2023/11/09 02:40:00;;;;;;;0.10;0.10;;;8.70;99.90;;;;;;5069157;28;20183;-78
2023/11/09 02:42:25;;;;;;;0.10;0.10;;;8.70;99.90;;;;;;5068987;28;20192;-78
2023/11/09 02:44:51;;;;;;;0.10;0.10;;;8.70;99.90;;;;;;5063829;28;20253;-78
2023/11/09 02:47:16;;;;;;;0.10;0.10;;;8.60;99.90;;;;;;5066156;28;20188;-78
2023/11/09 02:49:42;;;;;;;0.10;0.10;;;8.70;99.90;;;;;;5065325;28;20228;-78
2023/11/09 02:52:07;;;;;;;0.10;0.10;;;8.70;99.90;;;;;;5070034;28;20657;-77
2023/11/09 02:54:33;;;;;;;0.10;0.10;;;8.60;99.90;;;;;;5063643;28;20659;-78
2023/11/09 02:56:59;;;;;;;0.10;0.10;;;8.60;99.90;;;;;;5067340;28;20181;-77
2023/11/09 02:59:24;;;;;;;0.10;0.10;;;8.60;99.90;;;;;;5065381;28;20191;-77
2023/11/09 03:01:50;;;;;;;0.10;0.10;;;8.60;99.90;;;;;;5070005;28;21042;-77
2023/11/09 03:04:17;;;;;;;0.10;0.10;;;8.60;99.90;;;;;;5069918;28;20216;-78
2023/11/09 03:06:42;;;;;;;0.10;0.10;;;8.60;99.90;;;;;;5069975;28;20181;-78
2023/11/09 03:09:11;;;;;;;0.10;0.10;;;8.60;99.90;;;;;;5068484;28;20563;-77
2023/11/09 03:11:36;;;;;;;0.10;0.10;;;8.60;99.90;;;;;;5066525;28;20202;-78
2023/11/09 03:14:02;;;;;;;0.10;0.10;;;8.60;99.90;;;;;;5065105;28;20216;-77
2023/11/09 03:16:27;;;;;;;0.10;0.10;;;8.70;99.90;;;;;;5068924;28;20673;-78
2023/11/09 03:18:54;;;;;;;0.10;0.10;;;8.70;99.90;;;;;;5070492;28;20183;-78
2023/11/09 03:21:19;;;;;;;0.10;0.10;;;8.80;99.90;;;;;;5068184;28;20238;-77
2023/11/09 03:23:47;;;;;;;0.10;0.10;;;8.80;99.90;;;;;;5068820;28;20591;-78
2023/11/09 03:26:13;;;;;;;0.00;0.00;;;8.80;99.90;;;;;;5069731;28;20184;-78
2023/11/09 03:28:40;;;;;;;0.10;0.10;;;8.80;99.90;;;;;;5069394;28;20560;-78
2023/11/09 03:31:06;;;;;;;0.10;0.10;;;8.80;99.90;;;;;;5069191;28;20511;-77
2023/11/09 03:33:32;;;;;;;0.10;0.10;;;8.80;99.90;;;;;;5066280;28;20207;-77
2023/11/09 03:35:57;;;;;;;0.10;0.10;;;8.80;99.90;;;;;;5067482;28;20265;-78
2023/11/09 03:38:23;;;;;;;0.00;0.00;;;8.80;99.90;;;;;;5068605;28;20184;-78
2023/11/09 03:40:48;;;;;;;0.10;0.10;;;8.80;99.90;;;;;;5067313;28;20248;-78
2023/11/09 03:43:15;;;;;;;0.10;0.10;;;8.80;99.90;;;;;;5064123;28;20207;-78
2023/11/09 03:45:41;;;;;;;0.10;0.10;;;8.80;99.90;;;;;;5066971;28;20692;-77
2023/11/09 03:48:06;;;;;;;0.10;0.10;;;8.80;99.90;;;;;;5069432;28;20183;-77
2023/11/09 03:50:32;;;;;;;0.10;0.10;;;8.80;99.90;;;;;;5069184;28;20254;-77
2023/11/09 03:52:58;;;;;;;0.10;0.10;;;8.80;99.90;;;;;;5066107;28;20189;-77
2023/11/09 03:55:23;;;;;;;0.10;0.10;;;8.70;99.90;;;;;;5068928;28;20772;-78
2023/11/09 03:57:49;;;;;;;0.10;0.10;;;8.70;99.90;;;;;;5062669;28;20184;-78
2023/11/09 04:00:14;;;;;;;0.10;0.10;;;8.70;99.90;;;;;;5068597;28;20252;-78
2023/11/09 04:02:42;;;;;;;0.10;0.10;;;8.70;99.90;;;;;;5067484;28;20180;-78
2023/11/09 04:05:13;;;;;;;0.10;0.10;;;8.70;99.90;;;;;;5069128;28;20253;-78
2023/11/09 04:07:41;;;;;;;0.10;0.10;;;8.60;99.90;;;;;;5068650;28;20564;-78
2023/11/09 04:10:09;;;;;;;0.10;0.10;;;8.60;99.90;;;;;;5067074;28;20192;-77
2023/11/09 04:12:35;;;;;;;0.03;0.03;;;8.70;99.90;;;;;;5058313;28;20196;-77
2023/11/09 04:15:04;;;;;;;0.10;0.10;;;8.70;99.90;;;;;;5069131;28;20223;-77
2023/11/09 04:17:31;;;;;;;0.10;0.10;;;8.70;99.90;;;;;;5064734;28;20701;-77
2023/11/09 04:19:56;;;;;;;0.10;0.10;;;8.70;99.90;;;;;;5068627;28;20290;-77
2023/11/09 04:22:22;;;;;;;0.10;0.10;;;8.70;99.90;;;;;;5067980;28;20715;-78
2023/11/09 04:24:48;;;;;;;0.10;0.10;;;8.80;99.90;;;;;;5061657;28;20200;-77
2023/11/09 04:27:13;;;;;;;0.10;0.10;;;8.80;99.90;;;;;;5068924;28;20212;-78
2023/11/09 04:29:38;;;;;;;0.10;0.10;;;8.80;99.90;;;;;;5067917;28;20211;-78
2023/11/09 04:32:04;;;;;;;0.10;0.10;;;8.80;99.90;;;;;;5066829;28;20226;-77
2023/11/09 04:34:32;;;;;;;0.10;0.10;;;8.90;99.90;;;;;;5066225;28;20219;-77
2023/11/09 04:36:59;;;;;;;0.10;0.10;;;8.90;99.90;;;;;;5067568;28;20182;-77
2023/11/09 04:39:29;;;;;;;0.10;0.10;;;8.90;99.90;;;;;;5059241;28;20189;-77
2023/11/09 04:41:57;;;;;;;0.10;0.10;;;9.00;99.90;;;;;;5065979;28;20663;-77
2023/11/09 04:44:23;;;;;;;0.10;0.10;;;9.00;99.90;;;;;;5060289;28;20211;-78
2023/11/09 04:46:49;;;;;;;0.10;0.10;;;9.00;99.90;;;;;;5066091;28;20233;-77
2023/11/09 04:49:18;;;;;;;0.10;0.10;;;8.90;99.90;;;;;;5063981;28;20185;-77
2023/11/09 04:51:46;;;;;;;0.10;0.10;;;8.90;99.90;;;;;;5066865;28;20279;-78
2023/11/09 04:54:19;;;;;;;0.10;0.10;;;8.90;99.90;;;;;;5066059;28;20291;-78
2023/11/09 05:07:19;;;;;;;0.10;0.10;;;8.80;99.90;;;;;;5068483;28;20196;-78
2023/11/09 05:09:47;;;;;;;0.10;0.10;;;8.80;99.90;;;;;;5065254;28;20189;-78
2023/11/09 05:12:14;;;;;;;0.10;0.10;;;8.60;99.90;;;;;;5066974;28;20208;-77
2023/11/09 05:14:40;;;;;;;0.10;0.10;;;8.50;99.90;;;;;;5066274;28;20216;-77
2023/11/09 05:17:05;;;;;;;0.10;0.10;;;8.50;99.90;;;;;;5070782;28;20178;-77
2023/11/09 05:19:31;;;;;;;0.10;0.10;;;8.60;99.90;;;;;;5068331;28;20255;-77
2023/11/09 05:21:57;;;;;;;0.10;0.10;;;8.70;99.90;;;;;;5069806;28;20181;-77
2023/11/09 05:24:23;;;;;;;0.10;0.10;;;8.60;99.90;;;;;;5069878;28;20210;-78
2023/11/09 05:26:50;;;;;;;0.10;0.10;;;8.20;99.90;;;;;;5066209;28;20195;-78
2023/11/09 05:29:17;;;;;;;0.10;0.10;;;8.40;99.90;;;;;;5071353;28;20189;-77
2023/11/09 05:31:44;;;;;;;0.10;0.10;;;8.30;99.90;;;;;;5069274;28;20181;-77
2023/11/09 05:34:10;;;;;;;0.10;0.10;;;8.30;99.90;;;;;;5067636;28;20213;-78
2023/11/09 05:36:36;;;;;;;0.10;0.10;;;8.30;99.90;;;;;;5070955;28;20250;-78
2023/11/09 05:39:04;;;;;;;0.10;0.10;;;8.50;99.90;;;;;;5070928;28;20180;-77
2023/11/09 05:41:30;;;;;;;0.10;0.10;;;8.60;99.90;;;;;;5069989;28;20186;-78
2023/11/09 05:43:56;;;;;;;0.10;0.10;;;8.50;99.90;;;;;;5071099;28;20204;-78
2023/11/09 05:46:22;;;;;;;0.10;0.10;;;8.50;99.90;;;;;;5070322;28;20335;-78
2023/11/09 05:48:48;;;;;;;0.10;0.10;;;8.40;99.90;;;;;;5068528;28;20212;-78
2023/11/09 05:51:20;;;;;;;0.10;0.10;;;8.30;99.90;;;;;;5068198;28;20659;-78
2023/11/09 05:53:47;;;;;;;0.10;0.10;;;8.20;99.90;;;;;;5071048;28;20204;-78
2023/11/09 05:56:14;;;;;;;0.10;0.10;;;8.40;99.90;;;;;;5065738;28;20267;-78
2023/11/09 05:58:40;;;;;;;0.10;0.10;;;8.30;99.90;;;;;;5072460;28;20233;-78
2023/11/09 06:01:06;;;;;;;0.00;0.00;;;8.40;99.90;;;;;;5072500;28;20181;-78
2023/11/09 06:03:32;;;;;;;0.10;0.10;;;8.20;99.90;;;;;;5073519;28;20185;-78
2023/11/09 06:05:58;;;;;;;0.10;0.10;;;8.20;99.90;;;;;;5061919;28;20272;-78
2023/11/09 06:08:23;;;;;;;0.10;0.10;;;8.40;99.90;;;;;;5067139;28;20257;-78
2023/11/09 06:10:49;;;;;;;0.10;0.10;;;8.40;99.90;;;;;;5070495;28;20338;-78
2023/11/09 06:13:15;;;;;;;0.10;0.10;;;8.50;99.90;;;;;;5072605;28;20268;-78
2023/11/09 06:15:41;;;;;;;0.10;0.10;;;8.60;99.90;;;;;;5076647;28;20559;-79
2023/11/09 06:18:09;;;;;;;0.10;0.10;;;8.70;99.90;;;;;;5074628;28;20258;-78
2023/11/09 06:20:38;;;;;;;0.10;0.10;;;8.70;99.90;;;;;;5070781;28;20218;-79
2023/11/09 06:23:05;;;;;;;0.10;0.10;;;8.80;99.90;;;;;;5070029;28;20269;-79
2023/11/09 06:25:31;;;;;;;0.10;0.10;;;8.80;99.90;;;;;;5071633;28;20213;-79
2023/11/09 06:27:56;;;;;;;0.10;0.10;;;8.70;99.90;;;;;;5067671;28;20655;-79
2023/11/09 06:30:22;;;;;;;0.10;0.10;;;8.70;99.90;;;;;;5071471;28;20192;-78
2023/11/09 06:32:48;;;;;;;0.00;0.00;;;8.80;99.90;;;;;;5071476;28;20189;-79
2023/11/09 06:35:17;;;;;;;0.10;0.10;;;8.80;99.90;;;;;;5069545;28;20285;-79
2023/11/09 06:37:45;;;;;;;0.10;0.10;;;8.80;99.90;;;;;;5066700;28;20696;-79
2023/11/09 06:40:16;;;;;;;0.10;0.10;;;8.80;99.90;;;;;;5073545;28;20193;-78
2023/11/09 06:42:49;;;;;;;0.10;0.10;;;8.80;99.90;;;;;;5067972;28;20184;-78
2023/11/09 06:45:16;;;;;;;0.10;0.10;;;8.80;99.90;;;;;;5072117;28;20208;-79
2023/11/09 06:47:42;;;;;;;0.10;0.10;;;8.80;99.90;;;;;;5073085;28;20200;-79
2023/11/09 06:50:12;;;;;;;0.10;0.10;;;8.80;99.90;;;;;;5076558;28;20291;-80
2023/11/09 06:52:41;;;;;;;0.10;0.10;;;8.80;99.90;;;;;;5068677;28;20191;-79
2023/11/09 06:55:16;;;;;;;0.10;0.10;;;8.80;99.90;;;;;;5066692;28;20266;-79
2023/11/09 06:57:43;;;;;;;0.10;0.10;;;8.80;99.90;;;;;;5069723;28;20620;-79
2023/11/09 07:00:11;;;;;;;0.10;0.10;;;8.80;99.90;;;;;;5069381;28;20208;-79
2023/11/09 07:02:41;;;;;;;0.10;0.10;;;8.70;99.90;;;;;;5067935;28;20186;-79
2023/11/09 07:05:07;;;;;;;0.10;0.10;;;8.70;99.90;;;;;;5067654;28;20556;-80
2023/11/09 07:07:34;;;;;;;0.10;0.10;;;8.70;99.90;;;;;;5070531;28;20649;-79
2023/11/09 07:10:00;;;;;;;0.10;0.10;;;8.70;99.90;;;;;;5065671;28;20214;-79
2023/11/09 07:12:27;;;;;;;0.10;0.10;;;8.80;99.90;;;;;;5069379;28;20753;-80
2023/11/09 07:14:53;;;;;;;0.10;0.10;;;8.80;99.90;;;;;;5068050;28;20215;-79
2023/11/09 07:17:22;;;;;;;0.10;0.10;;;8.80;99.90;;;;;;5066195;28;20779;-79
2023/11/09 07:19:48;;;;;;;0.10;0.10;;;8.90;99.90;;;;;;5068916;28;20181;-79
2023/11/09 07:22:15;;;;;;;0.10;0.10;;;8.90;99.90;;;;;;5064939;28;20271;-79
2023/11/09 07:24:43;;;;;;;0.10;0.10;;;8.90;99.90;;;;;;5069595;28;20232;-78
2023/11/09 07:27:09;;;;;;;0.10;0.10;;;8.90;99.90;;;;;;5061678;28;20267;-78
2023/11/09 07:29:36;;;;;;;0.10;0.10;;;8.90;99.90;;;;;;5067231;28;20720;-78
2023/11/09 07:32:02;;;;;;;0.10;0.10;;;8.90;99.90;;;;;;5068588;28;20188;-78
2023/11/09 07:34:30;;;;;;;0.10;0.10;;;9.00;99.90;;;;;;5065884;28;20596;-78
2023/11/09 07:36:56;;;;;;;0.10;0.10;;;9.10;99.90;;;;;;5064156;28;20238;-78
2023/11/09 07:39:24;;;;;;;0.10;0.10;;;9.20;99.90;;;;;;5064953;28;20181;-78
2023/11/09 07:41:50;;;;;;;0.10;0.10;;;9.20;99.90;;;;;;5062168;28;20242;-78
2023/11/09 07:44:16;;;;;;;0.10;0.10;;;9.30;99.90;;;;;;5065638;28;20707;-79
2023/11/09 07:46:42;;;;;;;0.10;0.10;;;9.30;99.90;;;;;;5062412;28;20291;-78
2023/11/09 07:49:10;;;;;;;0.10;0.10;;;9.30;99.90;;;;;;5061326;28;20184;-78
2023/11/09 07:51:37;;;;;;;0.10;0.10;;;9.30;99.90;;;;;;5069627;28;20205;-79
2023/11/09 07:54:07;;;;;;;0.10;0.10;;;9.30;99.90;;;;;;5062204;28;20206;-78
2023/11/09 07:56:33;;;;;;;0.10;0.10;;;9.40;99.90;;;;;;5068688;28;20181;-79
2023/11/09 07:58:59;;;;;;;0.10;0.10;;;9.40;99.90;;;;;;5067744;28;20257;-78
2023/11/09 08:01:24;;;;;;;0.10;0.10;;;9.40;99.90;;;;;;5063999;28;20181;-78
2023/11/09 08:03:51;;;;;;;0.10;0.10;;;9.40;99.90;;;;;;5064997;28;20613;-79
2023/11/09 08:06:17;;;;;;;0.10;0.10;;;9.40;99.90;;;;;;5068009;28;20223;-79
2023/11/09 08:08:47;;;;;;;0.10;0.10;;;9.40;99.90;;;;;;5062850;28;20181;-78
2023/11/09 08:11:13;;;;;;;0.10;0.10;;;9.50;99.90;;;;;;5064216;28;20243;-79
2023/11/09 08:13:39;;;;;;;0.10;0.10;;;9.50;99.90;;;;;;5067218;28;20208;-78
2023/11/09 08:16:07;;;;;;;0.00;0.00;;;9.50;99.90;;;;;;5063666;28;20280;-78
2023/11/09 08:18:34;;;;;;;0.10;0.10;;;9.60;99.90;;;;;;5065838;28;20181;-78
2023/11/09 08:21:03;;;;;;;0.10;0.10;;;9.70;99.90;;;;;;5057563;28;20189;-78
2023/11/09 08:23:31;;;;;;;0.10;0.10;;;9.70;99.90;;;;;;5062979;28;20249;-78
2023/11/09 08:25:57;;;;;;;0.10;0.10;;;9.70;99.90;;;;;;5066685;28;20177;-78
2023/11/09 08:28:24;;;;;;;0.10;0.10;;;9.80;99.90;;;;;;5061367;28;20226;-80
2023/11/09 08:30:52;;;;;;;0.10;0.10;;;9.90;99.90;;;;;;5060585;28;20217;-80
2023/11/09 08:33:23;;;;;;;0.10;0.10;;;9.90;99.90;;;;;;5065940;28;20250;-79
2023/11/09 08:35:51;;;;;;;0.10;0.10;;;9.90;99.90;;;;;;5067467;28;20228;-79
2023/11/09 08:38:17;;;;;;;0.10;0.10;;;10.00;99.90;;;;;;5068280;28;20177;-79
2023/11/09 08:40:48;;;;;;;0.10;0.10;;;10.00;99.90;;;;;;5059416;28;20181;-79
2023/11/09 08:43:13;;;;;;;0.13;0.13;;;10.00;99.90;;;;;;5068688;28;20173;-79
2023/11/09 08:45:39;;;;;;;0.10;0.10;;;10.00;99.90;;;;;;5064835;28;20208;-79
2023/11/09 08:48:05;;;;;;;0.10;0.10;;;10.00;99.90;;;;;;5071900;28;20185;-79
2023/11/09 08:50:31;;;;;;;0.10;0.10;;;10.00;99.90;;;;;;5072632;28;20593;-79
2023/11/09 08:52:58;;;;;;;0.10;0.10;;;10.00;99.90;;;;;;5071343;28;20184;-79
2023/11/09 08:55:25;;;;;;;0.10;0.10;;;10.10;99.90;;;;;;5067260;28;20277;-79
2023/11/09 08:57:51;;;;;;;0.10;0.10;;;10.10;99.90;;;;;;5072470;28;20206;-79
2023/11/09 09:00:17;;;;;;;0.10;0.10;;;10.10;99.90;;;;;;5071956;28;20686;-79
2023/11/09 09:02:51;;;;;;;0.10;0.10;;;10.10;99.90;;;;;;5069455;28;20192;-79
2023/11/09 09:05:21;;;;;;;0.10;0.10;;;10.10;99.90;;;;;;5067327;28;20207;-79
2023/11/09 09:07:52;;;;;;;0.10;0.10;;;10.20;99.90;;;;;;5071541;28;20625;-79
2023/11/09 09:10:20;;;;;;;0.10;0.10;;;10.10;99.90;;;;;;5072241;28;20176;-79
2023/11/09 09:12:47;;;;;;;0.10;0.10;;;10.20;99.90;;;;;;5070760;28;20210;-79
2023/11/09 09:15:19;;;;;;;0.10;0.10;;;10.20;99.90;;;;;;5072515;28;20209;-79
2023/11/09 09:17:46;;;;;;;0.10;0.10;;;10.20;99.90;;;;;;5071219;28;20174;-79
2023/11/09 09:20:15;;;;;;;0.10;0.10;;;10.20;99.90;;;;;;5071841;28;20181;-79
2023/11/09 09:22:41;;;;;;;0.10;0.10;;;10.20;99.90;;;;;;5069813;28;20181;-79
2023/11/09 09:25:10;;;;;;;0.10;0.10;;;10.30;99.90;;;;;;5071935;28;20197;-79
2023/11/09 09:27:48;;;;;;;0.10;0.10;;;10.30;99.90;;;;;;5062106;28;20177;-79
2023/11/09 09:30:17;;;;;;;0.10;0.10;;;10.20;99.90;;;;;;5070178;28;20184;-79
2023/11/09 09:32:45;;;;;;;0.10;0.10;;;10.30;99.90;;;;;;5071310;28;20173;-79
2023/11/09 09:35:11;;;;;;;0.10;0.10;;;10.30;99.90;;;;;;5071382;28;20231;-79
2023/11/09 09:37:39;;;;;;;0.10;0.10;;;10.30;99.90;;;;;;5070070;28;20207;-79
2023/11/09 09:40:15;;;;;;;0.10;0.10;;;10.40;99.90;;;;;;5070792;28;20173;-79
2023/11/09 09:42:49;;;;;;;0.10;0.10;;;10.50;99.90;;;;;;5070986;28;20180;-79
2023/11/09 09:45:21;;;;;;;0.10;0.10;;;10.50;99.90;;;;;;5071286;28;20204;-79
2023/11/09 09:47:48;;;;;;;0.10;0.10;;;10.60;99.90;;;;;;5071447;28;20664;-79
2023/11/09 09:50:15;;;;;;;0.10;0.10;;;10.60;99.90;;;;;;5067528;28;20195;-79
2023/11/09 09:52:46;;;;;;;0.10;0.10;;;10.60;99.90;;;;;;5070437;28;20181;-79
2023/11/09 09:55:14;;;;;;;0.10;0.10;;;10.60;99.90;;;;;;5070178;28;20220;-79
2023/11/09 09:57:40;;;;;;;0.10;0.10;;;10.60;99.90;;;;;;5070514;28;20230;-79
2023/11/09 10:00:12;;;;;;;0.10;0.10;;;10.60;99.90;;;;;;5071387;28;20180;-79
2023/11/09 10:02:41;;;;;;;0.10;0.10;;;10.60;99.90;;;;;;5066179;28;20236;-79
2023/11/09 10:05:12;;;;;;;0.10;0.10;;;10.60;99.90;;;;;;5067455;28;20204;-80
2023/11/09 10:07:59;;;;;;;0.10;0.10;;;10.60;99.90;;;;;;5071265;28;20177;-79
2023/11/09 10:10:30;;;;;;;0.10;0.10;;;10.60;99.90;;;;;;5070069;28;20184;-79
2023/11/09 10:12:55;;;;;;;0.10;0.10;;;10.70;99.90;;;;;;5068990;28;20760;-79
2023/11/09 10:15:24;;;;;;;0.10;0.10;;;10.70;99.90;;;;;;5064219;28;20307;-79
2023/11/09 10:17:52;;;;;;;0.10;0.10;;;10.70;99.90;;;;;;5070486;28;20242;-79
2023/11/09 10:20:18;;;;;;;0.10;0.10;;;10.70;99.90;;;;;;5065148;28;20177;-79
2023/11/09 10:22:47;;;;;;;0.10;0.10;;;10.70;99.90;;;;;;5071934;28;20552;-79
2023/11/09 10:25:14;;;;;;;0.10;0.10;;;10.70;99.90;;;;;;5069987;28;20208;-79
2023/11/09 10:27:39;;;;;;;0.07;0.07;;;10.70;99.90;;;;;;5069701;28;20254;-79
2023/11/09 10:30:06;;;;;;;0.10;0.10;;;10.70;99.90;;;;;;5065394;28;20652;-79
2023/11/09 10:32:35;;;;;;;0.10;0.10;;;10.80;99.90;;;;;;5065937;28;20247;-79
2023/11/09 10:35:04;;;;;;;0.10;0.10;;;10.80;99.90;;;;;;5070689;28;20262;-79
2023/11/09 10:37:33;;;;;;;0.10;0.10;;;10.90;99.90;;;;;;5072305;28;20180;-79
2023/11/09 10:40:01;;;;;;;0.10;0.10;;;10.80;99.90;;;;;;5065015;28;20256;-79
2023/11/09 10:42:29;;;;;;;0.10;0.10;;;10.90;99.90;;;;;;5065337;28;20216;-79
2023/11/09 10:44:57;;;;;;;0.10;0.10;;;11.00;99.90;;;;;;5071576;28;20231;-79
2023/11/09 10:47:24;;;;;;;0.10;0.10;;;11.00;99.90;;;;;;5072051;28;20185;-79
2023/11/09 10:49:54;;;;;;;0.10;0.10;;;11.00;99.90;;;;;;5065007;28;20308;-79
2023/11/09 10:52:21;;;;;;;0.10;0.10;;;10.80;99.90;;;;;;5069986;28;20180;-79
2023/11/09 10:54:55;;;;;;;0.07;0.07;;;10.80;99.90;;;;;;5070971;28;20261;-79
2023/11/09 10:57:21;;;;;;;0.10;0.10;;;10.80;99.90;;;;;;5068517;28;20190;-78
2023/11/09 10:59:48;;;;;;;0.10;0.10;;;10.80;99.90;;;;;;5061311;28;20192;-79
2023/11/09 11:02:19;;;;;;;0.10;0.10;;;10.80;99.90;;;;;;5069885;28;20256;-78
2023/11/09 11:04:50;;;;;;;0.10;0.10;;;10.70;99.90;;;;;;5068714;28;20220;-79
2023/11/09 11:07:21;;;;;;;0.10;0.10;;;10.70;99.90;;;;;;5068259;28;20177;-79
2023/11/09 11:09:51;;;;;;;0.10;0.10;;;10.70;99.90;;;;;;5070882;28;20271;-79
2023/11/09 11:12:18;;;;;;;0.10;0.10;;;10.70;99.90;;;;;;5071627;28;20189;-79
2023/11/09 11:14:48;;;;;;;0.10;0.10;;;10.70;99.90;;;;;;5067793;28;20221;-79
2023/11/09 11:17:22;;;;;;;0.10;0.10;;;10.60;99.90;;;;;;5086458;28;20263;-79
2023/11/09 11:20:12;;;;;;;0.10;0.10;;;10.60;99.90;;;;;;5070132;28;20189;-77
2023/11/09 11:22:54;;;;;;;0.10;0.10;;;10.50;99.90;;;;;;5067994;28;20176;-78
2023/11/09 11:25:45;;;;;;;0.10;0.10;;;10.40;99.90;;;;;;5068268;28;20211;-79
2023/11/09 11:28:11;;;;;;;0.10;0.10;;;10.30;99.90;;;;;;5067991;28;20195;-78
2023/11/09 11:30:41;;;;;;;0.10;0.10;;;10.30;99.90;;;;;;5059968;28;20196;-78
2023/11/09 11:33:07;;;;;;;0.10;0.10;;;10.30;99.90;;;;;;5061176;28;20181;-79
2023/11/09 11:35:42;;;;;;;0.10;0.10;;;10.30;99.90;;;;;;5061515;28;20224;-79
2023/11/09 11:38:16;;;;;;;0.10;0.10;;;10.30;99.90;;;;;;5067437;28;20740;-78
2023/11/09 11:40:43;;;;;;;0.07;0.07;;;10.30;99.90;;;;;;5067480;28;20221;-79
2023/11/09 11:43:11;;;;;;;0.10;0.10;;;10.30;99.90;;;;;;5069078;28;20188;-79
2023/11/09 11:45:38;;;;;;;0.10;0.10;;;10.30;99.90;;;;;;5060937;28;21032;-79
2023/11/09 11:48:12;;;;;;;0.10;0.10;;;10.30;99.90;;;;;;5061330;28;20242;-79
2023/11/09 11:50:41;;;;;;;0.10;0.10;;;10.40;99.90;;;;;;5069537;28;20675;-78
2023/11/09 11:53:12;;;;;;;0.10;0.10;;;10.40;99.90;;;;;;5064809;28;20177;-79
2023/11/09 11:56:09;;;;;;;0.10;0.10;;;10.40;99.90;;;;;;5067424;28;20213;-79
2023/11/09 11:58:47;;;;;;;0.10;0.10;;;10.60;99.90;;;;;;5059898;28;20189;-78
2023/11/09 12:01:20;;;;;;;0.10;0.10;;;10.50;99.90;;;;;;5065802;28;20176;-78
2023/11/09 12:03:57;;;;;;;0.10;0.10;;;10.60;99.90;;;;;;5065233;28;20173;-78
2023/11/09 12:06:24;;;;;;;0.00;0.00;;;10.70;99.90;;;;;;5058379;28;20609;-78
2023/11/09 12:08:58;;;;;;;0.10;0.10;;;10.70;99.90;;;;;;5062843;28;20231;-79
2023/11/09 12:11:28;;;;;;;0.10;0.10;;;10.80;99.90;;;;;;5061743;28;20322;-78
2023/11/09 12:13:57;;;;;;;0.10;0.10;;;10.80;99.90;;;;;;5067962;28;20220;-78
2023/11/09 12:16:26;;;;;;;0.07;0.07;;;10.90;99.90;;;;;;5066535;28;20208;-78
2023/11/09 12:18:56;;;;;;;0.10;0.10;;;10.70;99.90;;;;;;5067351;28;20670;-78
2023/11/09 12:21:23;;;;;;;0.10;0.10;;;10.80;99.90;;;;;;5067272;28;20546;-78
2023/11/09 12:23:53;;;;;;;0.10;0.10;;;10.70;99.90;;;;;;5059245;28;20209;-78
2023/11/09 12:26:20;;;;;;;0.10;0.10;;;10.70;99.90;;;;;;5066244;28;20185;-78
2023/11/09 12:28:48;;;;;;;0.10;0.10;;;10.80;99.90;;;;;;5066786;28;20243;-78
2023/11/09 12:31:14;;;;;;;0.10;0.10;;;10.90;99.90;;;;;;5067413;28;20220;-78
2023/11/09 12:33:40;;;;;;;0.10;0.10;;;10.90;99.90;;;;;;5065034;28;20303;-79
2023/11/09 12:36:06;;;;;;;0.10;0.10;;;11.00;99.90;;;;;;5062201;28;20743;-78
2023/11/09 12:38:36;;;;;;;0.10;0.10;;;11.00;99.90;;;;;;5066186;28;20207;-79
2023/11/09 12:41:06;;;;;;;0.10;0.10;;;11.10;99.90;;;;;;5064902;28;20189;-78
2023/11/09 12:43:42;;;;;;;0.10;0.10;;;11.20;99.90;;;;;;5066899;28;20203;-78
2023/11/09 12:46:14;;;;;;;0.10;0.10;;;11.20;99.90;;;;;;5066080;28;20264;-78
2023/11/09 12:48:44;;;;;;;0.10;0.10;;;11.20;99.90;;;;;;5065356;28;20246;-79
2023/11/09 12:51:16;;;;;;;0.10;0.10;;;11.30;99.90;;;;;;5059876;28;20181;-78
2023/11/09 12:53:45;;;;;;;0.10;0.10;;;11.20;99.90;;;;;;5058359;28;20237;-78
2023/11/09 12:56:14;;;;;;;0.10;0.10;;;11.20;99.90;;;;;;5063161;28;20185;-78
2023/11/09 12:58:41;;;;;;;0.10;0.10;;;11.30;99.90;;;;;;5065280;28;20541;-78
2023/11/09 13:01:14;;;;;;;0.10;0.10;;;11.20;99.90;;;;;;5066589;28;20598;-78
2023/11/09 13:03:44;;;;;;;0.10;0.10;;;11.30;99.90;;;;;;5060068;28;20187;-78
2023/11/09 13:06:22;;;;;;;0.10;0.10;;;11.30;99.90;;;;;;5067552;28;20185;-78